createdAt,value
2019-03-25T00:00:58.792Z,26.60
2019-03-25T00:03:30.725Z,26.70
2019-03-25T00:06:03.269Z,26.70
2019-03-25T00:08:37.253Z,26.70
2019-03-25T00:11:09.811Z,26.70
2019-03-25T00:13:42.513Z,26.80
2019-03-25T00:16:14.598Z,26.80
2019-03-25T00:18:46.555Z,26.80
2019-03-25T00:21:19.090Z,26.90
2019-03-25T00:23:51.913Z,26.90
2019-03-25T00:26:24.056Z,26.90
2019-03-25T00:28:56.213Z,27.00
2019-03-25T00:31:28.277Z,27.00
2019-03-25T00:34:00.463Z,27.00
2019-03-25T00:36:33.459Z,27.00
2019-03-25T00:39:07.356Z,27.00
2019-03-25T00:41:39.662Z,27.00
2019-03-25T00:44:11.998Z,27.10
2019-03-25T00:46:44.163Z,27.10
2019-03-25T00:49:16.294Z,27.10
2019-03-25T00:51:49.136Z,27.20
2019-03-25T00:54:21.663Z,27.20
2019-03-25T00:56:53.891Z,27.20
2019-03-25T00:59:26.224Z,27.30
2019-03-25T01:01:58.353Z,27.30
2019-03-25T01:04:30.534Z,27.40
2019-03-25T01:07:03.797Z,27.40
2019-03-25T01:09:35.804Z,27.50
2019-03-25T01:12:08.662Z,27.60
2019-03-25T01:14:41.032Z,27.60
2019-03-25T01:17:13.389Z,27.60
2019-03-25T01:19:45.453Z,27.70
2019-03-25T01:22:17.616Z,27.80
2019-03-25T01:25:00.920Z,27.80
2019-03-25T01:27:24.533Z,27.90
2019-03-25T01:29:56.730Z,27.90
2019-03-25T01:32:28.930Z,28.00
2019-03-25T01:35:01.030Z,28.10
2019-03-25T01:37:33.284Z,28.20
2019-03-25T01:40:07.449Z,28.20
2019-03-25T01:42:39.908Z,28.30
2019-03-25T01:45:12.796Z,28.40
2019-03-25T01:47:44.854Z,28.50
2019-03-25T01:50:17.531Z,28.50
2019-03-25T01:52:49.742Z,28.60
2019-03-25T01:55:22.287Z,28.70
2019-03-25T01:57:54.882Z,28.70
2019-03-25T02:00:27.545Z,28.80
2019-03-25T02:02:59.928Z,28.80
2019-03-25T02:05:32.282Z,28.80
2019-03-25T02:08:04.458Z,28.90
2019-03-25T02:10:37.881Z,29.00
2019-03-25T02:13:12.589Z,29.00
2019-03-25T02:15:44.814Z,29.10
2019-03-25T02:18:17.079Z,29.10
2019-03-25T02:20:49.279Z,29.20
2019-03-25T02:23:22.404Z,29.30
2019-03-25T02:25:58.985Z,29.40
2019-03-25T02:28:31.057Z,29.50
2019-03-25T02:31:03.284Z,29.60
2019-03-25T02:33:35.706Z,29.60
2019-03-25T02:36:08.488Z,29.70
2019-03-25T02:38:59.760Z,29.80
2019-03-25T02:41:32.003Z,29.80
2019-03-25T02:44:03.918Z,29.90
2019-03-25T02:46:36.450Z,29.90
2019-03-25T02:49:08.683Z,30.00
2019-03-25T02:51:40.709Z,30.00
2019-03-25T02:54:12.793Z,30.00
2019-03-25T02:56:44.776Z,30.10
2019-03-25T02:59:17.225Z,30.20
2019-03-25T03:01:51.781Z,30.20
2019-03-25T03:04:23.835Z,30.30
2019-03-25T03:06:56.763Z,30.40
2019-03-25T03:09:28.992Z,30.50
2019-03-25T03:12:02.140Z,30.60
2019-03-25T03:14:34.188Z,30.60
2019-03-25T03:17:06.471Z,30.60
2019-03-25T03:19:38.562Z,30.60
2019-03-25T03:22:36.224Z,30.70
2019-03-25T03:25:12.886Z,30.70
2019-03-25T03:27:45.874Z,30.80
2019-03-25T03:30:18.326Z,30.80
2019-03-25T03:32:50.771Z,30.90
2019-03-25T03:35:23.689Z,30.90
2019-03-25T03:37:56.233Z,30.90
2019-03-25T03:40:28.193Z,30.90
2019-03-25T03:43:00.762Z,30.90
2019-03-25T03:45:33.514Z,31.00
2019-03-25T03:48:06.132Z,31.10
2019-03-25T03:50:38.403Z,31.20
2019-03-25T03:53:11.094Z,31.30
2019-03-25T03:55:43.115Z,31.40
2019-03-25T03:58:16.582Z,31.50
2019-03-25T04:00:49.000Z,31.50
2019-03-25T04:03:21.183Z,31.60
2019-03-25T04:05:53.098Z,31.60
2019-03-25T04:08:25.669Z,31.70
2019-03-25T04:10:58.028Z,31.80
2019-03-25T04:13:31.010Z,31.90
2019-03-25T04:16:03.817Z,32.00
2019-03-25T04:18:44.913Z,32.10
2019-03-25T04:21:29.056Z,32.10
2019-03-25T04:24:02.822Z,32.20
2019-03-25T04:26:47.729Z,32.30
2019-03-25T04:29:19.802Z,32.40
2019-03-25T04:31:51.539Z,32.50
2019-03-25T04:34:42.544Z,32.70
2019-03-25T04:37:14.898Z,32.80
2019-03-25T04:39:48.322Z,32.90
2019-03-25T04:42:20.455Z,32.90
2019-03-25T04:44:52.844Z,33.00
2019-03-25T04:47:25.523Z,33.10
2019-03-25T04:49:57.657Z,33.10
2019-03-25T04:52:29.850Z,33.20
2019-03-25T04:55:02.151Z,33.30
2019-03-25T04:57:34.416Z,33.40
2019-03-25T05:00:08.627Z,33.50
2019-03-25T05:02:40.884Z,33.50
2019-03-25T05:05:13.262Z,33.70
2019-03-25T05:07:45.286Z,33.80
2019-03-25T05:10:17.974Z,33.90
2019-03-25T05:12:50.029Z,34.10
2019-03-25T05:15:23.471Z,34.20
2019-03-25T05:17:55.401Z,34.30
2019-03-25T05:20:27.772Z,34.40
2019-03-25T05:22:59.503Z,34.60
2019-03-25T05:25:32.158Z,34.70
2019-03-25T05:28:04.660Z,34.70
2019-03-25T05:30:37.536Z,34.80
2019-03-25T05:33:10.918Z,34.90
2019-03-25T05:35:46.768Z,35.00
2019-03-25T05:38:30.870Z,35.10
2019-03-25T05:41:03.279Z,35.10
2019-03-25T05:43:35.148Z,35.20
2019-03-25T05:46:07.322Z,35.20
2019-03-25T05:48:40.151Z,35.30
2019-03-25T05:51:12.332Z,35.40
2019-03-25T05:53:44.373Z,35.40
2019-03-25T05:56:16.430Z,35.50
2019-03-25T05:58:48.527Z,35.60
2019-03-25T06:01:21.291Z,35.50
2019-03-25T06:03:54.194Z,35.40
2019-03-25T06:06:25.915Z,35.50
2019-03-25T06:08:57.852Z,35.50
2019-03-25T06:11:30.492Z,35.70
2019-03-25T06:14:02.435Z,35.80
2019-03-25T06:16:35.515Z,36.00
2019-03-25T06:19:26.639Z,36.20
2019-03-25T06:21:59.259Z,36.40
2019-03-25T06:24:31.421Z,36.50
2019-03-25T06:27:13.648Z,36.70
2019-03-25T06:29:37.175Z,36.70
2019-03-25T06:32:08.727Z,36.70
2019-03-25T06:34:40.886Z,36.80
2019-03-25T06:37:13.574Z,36.80
2019-03-25T06:39:45.826Z,36.90
2019-03-25T06:42:17.928Z,36.90
2019-03-25T06:44:50.292Z,36.90
2019-03-25T06:47:22.331Z,36.90
2019-03-25T06:49:57.576Z,36.90
2019-03-25T06:52:29.952Z,36.90
2019-03-25T06:55:02.192Z,36.90
2019-03-25T06:57:35.108Z,37.00
2019-03-25T07:00:18.883Z,37.10
2019-03-25T07:02:51.626Z,37.10
2019-03-25T07:05:33.697Z,37.00
2019-03-25T07:08:06.419Z,36.90
2019-03-25T07:10:39.776Z,36.80
2019-03-25T07:13:17.698Z,36.80
2019-03-25T07:15:50.200Z,36.80
2019-03-25T07:18:23.678Z,36.90
2019-03-25T07:20:56.056Z,36.90
2019-03-25T07:23:28.207Z,36.90
2019-03-25T07:26:00.557Z,36.90
2019-03-25T07:28:32.834Z,37.00
2019-03-25T07:31:04.848Z,36.90
2019-03-25T07:33:37.048Z,36.90
2019-03-25T07:36:09.158Z,36.90
2019-03-25T07:38:41.216Z,36.90
2019-03-25T07:41:13.785Z,36.80
2019-03-25T07:43:45.915Z,36.80
2019-03-25T07:46:18.122Z,36.60
2019-03-25T07:48:50.177Z,36.60
2019-03-25T07:51:22.158Z,36.50
2019-03-25T07:53:55.429Z,36.50
2019-03-25T07:56:27.878Z,36.50
2019-03-25T07:59:00.184Z,36.40
2019-03-25T08:01:33.185Z,36.40
2019-03-25T08:04:05.311Z,36.30
2019-03-25T08:06:37.659Z,36.30
2019-03-25T08:09:29.300Z,36.30
2019-03-25T08:12:01.329Z,36.30
2019-03-25T08:14:33.234Z,36.40
2019-03-25T08:17:06.018Z,36.40
2019-03-25T08:19:41.700Z,36.50
2019-03-25T08:22:14.130Z,36.60
2019-03-25T08:25:06.047Z,36.70
2019-03-25T08:27:39.257Z,36.80
2019-03-25T08:30:12.513Z,36.90
2019-03-25T08:32:45.231Z,36.90
2019-03-25T08:35:17.507Z,37.00
2019-03-25T08:37:51.190Z,37.00
2019-03-25T08:40:23.293Z,37.00
2019-03-25T08:42:55.127Z,37.10
2019-03-25T08:45:28.441Z,37.10
2019-03-25T08:48:00.562Z,37.00
2019-03-25T08:50:32.455Z,37.10
2019-03-25T08:53:04.871Z,37.00
2019-03-25T08:55:36.890Z,37.00
2019-03-25T08:58:12.269Z,37.00
2019-03-25T09:00:43.283Z,37.00
2019-03-25T09:03:15.370Z,37.00
2019-03-25T09:05:47.631Z,37.00
2019-03-25T09:08:38.897Z,37.00
2019-03-25T09:11:12.499Z,36.90
2019-03-25T09:13:45.650Z,36.90
2019-03-25T09:16:17.946Z,36.90
2019-03-25T09:18:51.273Z,36.90
2019-03-25T09:21:24.811Z,36.80
2019-03-25T09:24:05.733Z,36.90
2019-03-25T09:26:38.282Z,36.90
2019-03-25T09:29:10.420Z,36.80
2019-03-25T09:31:42.499Z,36.80
2019-03-25T09:34:15.916Z,36.70
2019-03-25T09:36:48.016Z,36.70
2019-03-25T09:39:19.933Z,36.70
2019-03-25T09:41:52.364Z,36.60
2019-03-25T09:44:24.628Z,36.60
2019-03-25T09:46:56.564Z,36.60
2019-03-25T09:49:29.384Z,36.60
2019-03-25T09:52:01.674Z,36.60
2019-03-25T09:54:34.043Z,36.60
2019-03-25T09:57:06.898Z,36.50
2019-03-25T09:59:39.000Z,36.50
2019-03-25T10:02:30.358Z,36.50
2019-03-25T10:05:02.930Z,36.40
2019-03-25T10:07:35.676Z,36.30
2019-03-25T10:10:09.990Z,36.20
2019-03-25T10:12:42.313Z,36.20
2019-03-25T10:15:14.671Z,36.10
2019-03-25T10:17:48.288Z,36.00
2019-03-25T10:20:21.208Z,35.80
2019-03-25T10:22:54.016Z,35.80
2019-03-25T10:25:26.139Z,35.60
2019-03-25T10:27:58.990Z,35.50
2019-03-25T10:30:31.240Z,35.30
2019-03-25T10:33:03.581Z,35.20
2019-03-25T10:35:36.565Z,35.10
2019-03-25T10:38:19.180Z,35.00
2019-03-25T10:41:02.963Z,34.90
2019-03-25T10:43:35.225Z,34.80
2019-03-25T10:46:09.726Z,34.80
2019-03-25T10:48:41.789Z,34.60
2019-03-25T10:51:14.026Z,34.60
2019-03-25T10:53:46.371Z,34.50
2019-03-25T10:56:18.421Z,34.40
2019-03-25T10:58:57.971Z,34.30
2019-03-25T11:01:24.494Z,34.20
2019-03-25T11:03:56.728Z,34.10
2019-03-25T11:06:28.810Z,34.00
2019-03-25T11:09:01.186Z,33.90
2019-03-25T11:11:34.260Z,33.90
2019-03-25T11:14:26.729Z,33.80
2019-03-25T11:16:58.793Z,33.80
2019-03-25T11:19:32.014Z,33.70
2019-03-25T11:22:04.059Z,33.70
2019-03-25T11:24:37.245Z,33.60
2019-03-25T11:27:09.716Z,33.60
2019-03-25T11:29:49.216Z,33.50
2019-03-25T11:32:21.934Z,33.50
2019-03-25T11:34:54.152Z,33.40
2019-03-25T11:37:35.830Z,33.30
2019-03-25T11:40:29.558Z,33.30
2019-03-25T11:43:01.980Z,33.30
2019-03-25T11:45:34.409Z,33.20
2019-03-25T11:48:26.965Z,33.20
2019-03-25T11:50:59.417Z,33.20
2019-03-25T11:53:31.643Z,33.10
2019-03-25T11:56:04.318Z,33.10
2019-03-25T11:58:36.593Z,33.10
2019-03-25T12:01:09.896Z,33.10
2019-03-25T12:03:42.539Z,33.00
2019-03-25T12:06:14.978Z,33.00
2019-03-25T12:09:08.911Z,32.90
2019-03-25T12:11:41.071Z,32.80
2019-03-25T12:14:13.209Z,32.70
2019-03-25T12:17:05.537Z,32.60
2019-03-25T12:19:38.361Z,32.60
2019-03-25T12:22:12.801Z,32.50
2019-03-25T12:24:44.310Z,32.40
2019-03-25T12:27:17.124Z,32.40
2019-03-25T12:29:49.237Z,32.30
2019-03-25T12:32:21.374Z,32.20
2019-03-25T12:35:14.130Z,32.20
2019-03-25T12:37:46.900Z,32.10
2019-03-25T12:40:19.364Z,32.10
2019-03-25T12:42:51.473Z,32.10
2019-03-25T12:45:24.271Z,32.10
2019-03-25T12:47:56.488Z,32.10
2019-03-25T12:50:28.733Z,32.10
2019-03-25T12:53:00.918Z,32.10
2019-03-25T12:55:33.302Z,32.10
2019-03-25T12:58:07.421Z,32.00
2019-03-25T13:00:42.740Z,32.00
2019-03-25T13:03:15.688Z,31.90
2019-03-25T13:05:47.818Z,31.80
2019-03-25T13:08:19.951Z,31.80
2019-03-25T13:10:53.176Z,31.70
2019-03-25T13:13:25.141Z,31.60
2019-03-25T13:16:01.049Z,31.60
2019-03-25T13:18:33.441Z,31.50
2019-03-25T13:21:06.266Z,31.40
2019-03-25T13:23:38.085Z,31.40
2019-03-25T13:26:10.295Z,31.30
2019-03-25T13:28:47.991Z,31.30
2019-03-25T13:31:20.254Z,31.20
2019-03-25T13:33:53.664Z,31.10
2019-03-25T13:36:26.036Z,31.10
2019-03-25T13:38:58.104Z,31.00
2019-03-25T13:41:30.074Z,31.00
2019-03-25T13:44:02.452Z,31.00
2019-03-25T13:46:35.131Z,31.00
2019-03-25T13:49:07.380Z,30.90
2019-03-25T13:51:40.192Z,30.90
2019-03-25T13:54:12.209Z,30.90
2019-03-25T13:56:44.544Z,30.80
2019-03-25T13:59:16.585Z,30.80
2019-03-25T14:01:48.538Z,30.70
2019-03-25T14:04:21.539Z,30.70
2019-03-25T14:06:53.736Z,30.70
2019-03-25T14:09:25.795Z,30.60
2019-03-25T14:12:18.331Z,30.60
2019-03-25T14:14:50.577Z,30.50
2019-03-25T14:17:22.625Z,30.50
2019-03-25T14:19:54.994Z,30.40
2019-03-25T14:22:27.208Z,30.40
2019-03-25T14:24:58.936Z,30.40
2019-03-25T14:27:31.474Z,30.40
2019-03-25T14:30:13.976Z,30.30
2019-03-25T14:32:38.315Z,30.30
2019-03-25T14:35:12.029Z,30.30
2019-03-25T14:37:44.444Z,30.20
2019-03-25T14:40:17.099Z,30.30
2019-03-25T14:42:50.001Z,30.20
2019-03-25T14:45:26.754Z,30.20
2019-03-25T14:47:56.336Z,30.10
2019-03-25T14:50:28.591Z,30.10
2019-03-25T14:53:00.706Z,30.10
2019-03-25T14:55:33.284Z,30.10
2019-03-25T14:58:05.452Z,30.00
2019-03-25T15:00:37.676Z,30.00
2019-03-25T15:03:10.104Z,30.00
2019-03-25T15:06:02.605Z,29.90
2019-03-25T15:08:35.661Z,29.90
2019-03-25T15:11:08.116Z,29.80
2019-03-25T15:13:40.703Z,29.80
2019-03-25T15:16:12.828Z,29.80
2019-03-25T15:18:45.223Z,29.80
2019-03-25T15:21:18.666Z,29.70
2019-03-25T15:23:50.996Z,29.70
2019-03-25T15:26:23.827Z,29.70
2019-03-25T15:28:55.769Z,29.70
2019-03-25T15:31:48.885Z,29.70
2019-03-25T15:34:21.535Z,29.60
2019-03-25T15:36:53.555Z,29.60
2019-03-25T15:39:25.787Z,29.60
2019-03-25T15:41:58.492Z,29.60
2019-03-25T15:44:30.586Z,29.50
2019-03-25T15:47:03.270Z,29.50
2019-03-25T15:49:35.402Z,29.50
2019-03-25T15:52:07.576Z,29.50
2019-03-25T15:54:39.811Z,29.50
2019-03-25T15:57:11.833Z,29.50
2019-03-25T15:59:44.529Z,29.40
2019-03-25T16:02:16.607Z,29.40
2019-03-25T16:04:48.420Z,29.40
2019-03-25T16:07:20.475Z,29.40
2019-03-25T16:09:52.777Z,29.40
2019-03-25T16:12:25.040Z,29.40
2019-03-25T16:14:57.334Z,29.40
2019-03-25T16:17:29.401Z,29.30
2019-03-25T16:20:01.663Z,29.30
2019-03-25T16:22:33.801Z,29.30
2019-03-25T16:25:09.036Z,29.20
2019-03-25T16:27:41.073Z,29.20
2019-03-25T16:30:13.830Z,29.20
2019-03-25T16:32:46.602Z,29.20
2019-03-25T16:35:18.979Z,29.10
2019-03-25T16:37:51.680Z,29.10
2019-03-25T16:40:24.067Z,29.10
2019-03-25T16:42:57.196Z,29.10
2019-03-25T16:45:29.248Z,29.00
2019-03-25T16:48:01.590Z,29.00
2019-03-25T16:50:33.753Z,29.00
2019-03-25T16:53:05.810Z,29.00
2019-03-25T16:55:38.277Z,28.90
2019-03-25T16:58:10.393Z,28.90
2019-03-25T17:00:43.331Z,28.90
2019-03-25T17:03:15.749Z,28.90
2019-03-25T17:05:47.758Z,28.90
2019-03-25T17:08:22.352Z,28.90
2019-03-25T17:10:56.641Z,28.90
2019-03-25T17:13:28.860Z,28.90
2019-03-25T17:16:01.786Z,28.90
2019-03-25T17:18:34.263Z,28.90
2019-03-25T17:21:06.914Z,28.90
2019-03-25T17:23:39.231Z,28.90
2019-03-25T17:26:11.533Z,28.90
2019-03-25T17:28:43.699Z,28.80
2019-03-25T17:31:20.824Z,28.80
2019-03-25T17:33:49.944Z,28.80
2019-03-25T17:36:22.486Z,28.80
2019-03-25T17:38:54.918Z,28.80
2019-03-25T17:41:26.998Z,28.80
2019-03-25T17:43:59.151Z,28.80
2019-03-25T17:46:31.282Z,28.80
2019-03-25T17:49:03.362Z,28.80
2019-03-25T17:51:35.946Z,28.80
2019-03-25T17:54:08.342Z,28.80
2019-03-25T17:56:40.602Z,28.80
2019-03-25T17:59:12.663Z,28.80
2019-03-25T18:01:45.396Z,28.80
2019-03-25T18:04:17.536Z,28.80
2019-03-25T18:06:49.668Z,28.80
2019-03-25T18:09:21.979Z,28.80
2019-03-25T18:11:54.204Z,28.80
2019-03-25T18:14:26.144Z,28.80
2019-03-25T18:16:58.656Z,28.80
2019-03-25T18:19:30.933Z,28.80
2019-03-25T18:22:02.879Z,28.70
2019-03-25T18:24:34.971Z,28.70
2019-03-25T18:27:06.993Z,28.70
2019-03-25T18:29:39.201Z,28.70
2019-03-25T18:32:12.494Z,28.70
2019-03-25T18:34:45.048Z,28.70
2019-03-25T18:37:19.979Z,28.60
2019-03-25T18:39:52.262Z,28.60
2019-03-25T18:42:24.418Z,28.60
2019-03-25T18:44:56.820Z,28.60
2019-03-25T18:47:29.036Z,28.60
2019-03-25T18:50:01.376Z,28.60
2019-03-25T18:52:33.504Z,28.60
2019-03-25T18:55:07.135Z,28.60
2019-03-25T18:57:39.089Z,28.60
2019-03-25T19:00:14.348Z,28.60
2019-03-25T19:02:46.485Z,28.50
2019-03-25T19:05:18.558Z,28.50
2019-03-25T19:07:51.407Z,28.50
2019-03-25T19:10:27.330Z,28.50
2019-03-25T19:13:00.298Z,28.50
2019-03-25T19:15:32.667Z,28.50
2019-03-25T19:18:04.496Z,28.50
2019-03-25T19:20:36.840Z,28.40
2019-03-25T19:23:08.967Z,28.40
2019-03-25T19:25:41.040Z,28.40
2019-03-25T19:28:13.518Z,28.40
2019-03-25T19:30:45.429Z,28.30
2019-03-25T19:33:17.481Z,28.30
2019-03-25T19:35:49.724Z,28.30
2019-03-25T19:38:23.005Z,28.30
2019-03-25T19:40:56.761Z,28.30
2019-03-25T19:43:28.750Z,28.20
2019-03-25T19:46:01.046Z,28.20
2019-03-25T19:48:33.595Z,28.10
2019-03-25T19:51:07.465Z,28.10
2019-03-25T19:53:40.132Z,28.00
2019-03-25T19:56:12.208Z,27.90
2019-03-25T19:58:44.717Z,27.90
2019-03-25T20:01:19.784Z,27.90
2019-03-25T20:03:52.239Z,27.80
2019-03-25T20:06:26.387Z,27.80
2019-03-25T20:08:58.715Z,27.70
2019-03-25T20:11:33.986Z,27.70
2019-03-25T20:14:06.309Z,27.60
2019-03-25T20:16:38.886Z,27.60
2019-03-25T20:19:11.538Z,27.60
2019-03-25T20:21:48.360Z,27.50
2019-03-25T20:24:20.516Z,27.50
2019-03-25T20:26:52.453Z,27.50
2019-03-25T20:29:24.981Z,27.50
2019-03-25T20:31:56.950Z,27.50
2019-03-25T20:34:29.178Z,27.40
2019-03-25T20:37:01.676Z,27.40
2019-03-25T20:39:34.162Z,27.40
2019-03-25T20:42:08.606Z,27.40
2019-03-25T20:44:43.437Z,27.40
2019-03-25T20:47:15.756Z,27.40
2019-03-25T20:49:47.918Z,27.50
2019-03-25T20:52:20.526Z,27.50
2019-03-25T20:54:52.576Z,27.50
2019-03-25T20:57:24.626Z,27.50
2019-03-25T20:59:57.248Z,27.50
2019-03-25T21:02:29.382Z,27.40
2019-03-25T21:05:01.487Z,27.40
2019-03-25T21:07:34.574Z,27.30
2019-03-25T21:10:09.116Z,27.20
2019-03-25T21:12:41.890Z,27.20
2019-03-25T21:15:14.456Z,27.10
2019-03-25T21:17:46.437Z,27.10
2019-03-25T21:20:18.732Z,27.10
2019-03-25T21:22:51.098Z,27.00
2019-03-25T21:25:23.510Z,27.00
2019-03-25T21:27:55.764Z,27.00
2019-03-25T21:30:28.421Z,27.00
2019-03-25T21:33:00.557Z,27.00
2019-03-25T21:35:33.036Z,27.00
2019-03-25T21:38:05.402Z,27.00
2019-03-25T21:40:38.045Z,27.00
2019-03-25T21:43:11.455Z,27.00
2019-03-25T21:45:44.039Z,26.90
2019-03-25T21:48:15.967Z,26.90
2019-03-25T21:50:48.433Z,26.90
2019-03-25T21:53:20.413Z,26.80
2019-03-25T21:55:52.522Z,26.80
2019-03-25T21:58:25.452Z,26.70
2019-03-25T22:00:57.453Z,26.70
2019-03-25T22:03:29.346Z,26.60
2019-03-25T22:06:01.204Z,26.60
2019-03-25T22:08:33.091Z,26.50
2019-03-25T22:11:05.546Z,26.50
2019-03-25T22:13:38.334Z,26.40
2019-03-25T22:16:10.342Z,26.40
2019-03-25T22:18:55.982Z,26.40
2019-03-25T22:21:27.950Z,26.30
2019-03-25T22:24:00.156Z,26.30
2019-03-25T22:26:33.109Z,26.30
2019-03-25T22:29:08.908Z,26.30
2019-03-25T22:31:41.078Z,26.30
2019-03-25T22:34:13.178Z,26.30
2019-03-25T22:36:45.210Z,26.30
2019-03-25T22:39:18.036Z,26.40
2019-03-25T22:41:50.193Z,26.40
2019-03-25T22:44:22.756Z,26.30
2019-03-25T22:46:54.695Z,26.30
2019-03-25T22:49:29.102Z,26.30
2019-03-25T22:52:00.956Z,26.30
2019-03-25T22:54:33.180Z,26.30
2019-03-25T22:57:05.211Z,26.30
2019-03-25T22:59:37.421Z,26.30
2019-03-25T23:02:10.466Z,26.20
2019-03-25T23:04:42.427Z,26.20
2019-03-25T23:07:14.571Z,26.20
2019-03-25T23:09:46.683Z,26.20
2019-03-25T23:12:18.866Z,26.10
2019-03-25T23:14:52.108Z,26.10
2019-03-25T23:17:25.074Z,26.10
2019-03-25T23:19:57.308Z,26.10
2019-03-25T23:22:29.420Z,26.10
2019-03-25T23:25:01.905Z,26.10
2019-03-25T23:27:34.282Z,26.10
2019-03-25T23:30:08.393Z,26.10
2019-03-25T23:32:40.316Z,26.10
2019-03-25T23:35:12.527Z,26.10
2019-03-25T23:37:45.340Z,26.10
2019-03-25T23:40:17.734Z,26.10
2019-03-25T23:42:49.863Z,26.10
2019-03-25T23:45:23.348Z,26.10
2019-03-25T23:48:02.590Z,26.10
2019-03-25T23:50:34.940Z,26.20
2019-03-25T23:53:07.156Z,26.20
2019-03-25T23:55:39.094Z,26.20
2019-03-25T23:58:11.492Z,26.20
